Bear Valley Springs, California
Current Conditions -  °F | °C
As of 12:55 PM on Tuesday 21 Oct 2014 (Local Time) from KMHV Reporting Station
Clear Clear  
Wind Chill: 75°   Ceiling: Unl
Heat Index: 75°   Visibility: 10mi
Dew Point: 36°   Wind: 15mph
Humidity: 24%   Direction: 270°W
Pressure: 29.93"   Gusts: 21mph
Location:  35.1338°N, 118.552°W
Report Text: KMHV 211955Z AUTO 27013G18KT 10SM CLR 24/02 A2993 RMK AO1
Loading
Personal Weather Stations






























Interactive Weather Map
Tropical Storm Tracking
New forecast layout! Learn more

10-Day Weather Forecast

Advertisements
Track Severe Weather on mobile